createdAt,value
2019-06-01T00:02:25.233Z,1.10
2019-06-01T00:07:28.687Z,1.80
2019-06-01T00:12:32.150Z,0.73
2019-06-01T00:17:35.616Z,1.17
2019-06-01T00:22:39.080Z,1.67
2019-06-01T00:27:42.574Z,2.05
2019-06-01T00:32:47.203Z,1.85
2019-06-01T00:37:51.815Z,1.62
2019-06-01T00:42:55.333Z,1.00
2019-06-01T00:47:58.818Z,1.10
2019-06-01T00:53:02.296Z,1.02
2019-06-01T00:58:05.775Z,1.40
2019-06-01T01:03:09.272Z,1.10
2019-06-01T01:08:12.761Z,0.90
2019-06-01T01:13:17.935Z,1.57
2019-06-01T01:18:21.392Z,1.32
2019-06-01T01:23:24.854Z,2.58
2019-06-01T01:28:28.330Z,1.30
2019-06-01T01:33:31.791Z,1.10
2019-06-01T01:38:35.256Z,1.25
2019-06-01T01:43:38.718Z,1.65
2019-06-01T01:48:42.183Z,1.10
2019-06-01T01:53:45.645Z,2.72
2019-06-01T01:58:50.253Z,3.37
2019-06-01T02:03:55.362Z,1.22
2019-06-01T02:08:59.393Z,1.07
2019-06-01T02:14:03.234Z,1.27
2019-06-01T02:19:06.725Z,0.78
2019-06-01T02:24:10.188Z,2.02
2019-06-01T02:29:13.678Z,1.22
2019-06-01T02:34:17.160Z,2.02
2019-06-01T02:39:20.655Z,1.02
2019-06-01T02:44:24.157Z,2.30
2019-06-01T02:49:27.599Z,1.07
2019-06-01T02:54:31.074Z,1.80
2019-06-01T02:59:34.551Z,2.67
2019-06-01T03:04:38.017Z,1.72
2019-06-01T03:09:42.134Z,2.35
2019-06-01T03:14:47.199Z,1.62
2019-06-01T03:19:52.577Z,2.45
2019-06-01T03:24:59.786Z,2.10
2019-06-01T03:30:12.231Z,3.17
2019-06-01T03:35:14.453Z,2.17
2019-06-01T03:40:23.806Z,2.90
2019-06-01T03:45:23.106Z,6.30
2019-06-01T03:50:26.576Z,1.75
2019-06-01T03:55:30.043Z,1.95
2019-06-01T04:00:33.500Z,1.98
2019-06-01T04:05:36.970Z,2.15
2019-06-01T04:10:40.432Z,2.05
2019-06-01T04:15:43.901Z,3.05
2019-06-01T04:20:47.379Z,1.72
2019-06-01T04:25:50.853Z,2.02
2019-06-01T04:30:54.318Z,2.02
2019-06-01T04:35:57.776Z,2.12
2019-06-01T04:41:01.251Z,2.05
2019-06-01T04:46:06.051Z,2.02
2019-06-01T04:51:11.605Z,3.55
2019-06-01T04:56:15.253Z,2.70
2019-06-01T05:01:18.829Z,2.05
2019-06-01T05:06:22.289Z,1.85
2019-06-01T05:11:25.752Z,2.58
2019-06-01T05:16:29.214Z,2.55
2019-06-01T05:21:32.691Z,2.90
2019-06-01T05:26:36.153Z,2.05
2019-06-01T05:31:39.613Z,4.12
2019-06-01T11:14:54.888Z,2.77
2019-06-01T11:19:58.355Z,1.32
2019-06-01T11:25:01.883Z,3.87
2019-06-01T11:30:09.298Z,4.12
2019-06-01T11:35:13.402Z,4.00
2019-06-01T11:40:16.935Z,1.70
2019-06-01T11:45:20.475Z,3.33
2019-06-01T11:50:23.973Z,2.20
2019-06-01T11:55:27.498Z,2.75
2019-06-01T12:00:31.356Z,1.62
2019-06-01T12:05:35.762Z,5.28
2019-06-01T12:10:39.313Z,3.47
2019-06-01T12:15:42.845Z,1.67
2019-06-01T12:20:47.338Z,2.58
2019-06-01T12:25:50.876Z,3.12
2019-06-01T12:30:54.346Z,2.45
2019-06-01T12:35:58.209Z,5.20
2019-06-01T12:41:01.636Z,3.15
2019-06-01T12:46:07.754Z,1.42
2019-06-01T12:56:28.465Z,2.05
2019-06-01T13:01:31.926Z,3.33
2019-06-01T13:09:20.322Z,1.40
2019-06-01T14:07:41.625Z,1.87
2019-06-01T14:12:45.315Z,4.60
2019-06-01T14:17:50.189Z,2.80
2019-06-01T14:22:54.123Z,1.20
2019-06-01T14:27:57.593Z,2.72
2019-06-01T14:33:01.057Z,5.17
2019-06-01T14:38:04.521Z,4.07
2019-06-01T14:43:07.982Z,3.10
2019-06-01T14:48:11.445Z,2.95
2019-06-01T14:53:14.904Z,4.55
2019-06-01T14:58:18.361Z,1.40
2019-06-01T15:03:21.821Z,4.92
2019-06-01T15:08:25.299Z,2.67
2019-06-01T15:13:28.760Z,1.67
2019-06-01T15:18:32.225Z,6.15
2019-06-01T15:23:35.695Z,1.35
2019-06-01T15:28:39.164Z,1.12
2019-06-01T15:33:42.699Z,1.07
2019-06-01T15:38:46.157Z,2.80
2019-06-01T15:43:50.825Z,1.10
2019-06-01T15:48:56.002Z,1.90
2019-06-01T15:53:59.618Z,2.12
2019-06-01T15:59:03.149Z,0.80
2019-06-01T16:04:06.610Z,2.22
2019-06-01T16:09:10.073Z,1.40
2019-06-01T16:14:13.536Z,1.72
2019-06-01T16:19:17.001Z,1.77
2019-06-01T16:24:20.459Z,1.22
2019-06-01T16:29:23.921Z,1.52
2019-06-01T16:34:27.383Z,1.95
2019-06-01T16:39:30.841Z,0.95
2019-06-01T16:44:34.300Z,1.75
2019-06-01T16:49:37.765Z,0.70
2019-06-01T16:54:41.223Z,1.92
2019-06-01T16:59:44.692Z,0.80
2019-06-01T17:04:48.144Z,4.45
2019-06-01T17:09:51.610Z,0.90
2019-06-01T17:14:55.073Z,3.08
2019-06-01T17:19:59.020Z,2.50
2019-06-01T17:25:03.679Z,2.98
2019-06-01T17:30:11.532Z,0.70
2019-06-01T17:35:12.746Z,1.00
2019-06-01T17:40:16.211Z,1.80
2019-06-01T17:45:20.006Z,1.00
2019-06-01T17:50:24.100Z,2.20
2019-06-01T17:55:32.657Z,2.02
2019-06-01T18:00:36.429Z,0.65
2019-06-01T18:05:39.908Z,0.88
2019-06-01T18:10:53.845Z,0.90
2019-06-01T18:15:50.066Z,1.25
2019-06-01T18:20:53.856Z,0.95
2019-06-01T18:25:57.290Z,1.15
2019-06-01T18:31:00.829Z,1.17
2019-06-01T18:36:05.418Z,1.82
2019-06-01T18:41:16.152Z,3.02
2019-06-01T18:46:14.491Z,1.62
2019-06-01T18:51:17.953Z,1.00
2019-06-01T18:56:21.448Z,3.58
2019-06-01T19:01:24.963Z,2.90
2019-06-01T19:06:28.424Z,1.20
2019-06-01T19:11:35.986Z,2.67
2019-06-01T19:16:37.073Z,1.87
2019-06-01T19:21:40.532Z,2.75
2019-06-01T19:26:45.564Z,2.25
2019-06-01T19:31:49.025Z,5.50
2019-06-01T19:36:54.626Z,1.87
2019-06-01T19:41:58.085Z,2.12
2019-06-01T19:47:01.551Z,3.25
2019-06-01T19:52:05.350Z,3.17
2019-06-01T19:57:09.790Z,3.35
2019-06-01T20:02:31.099Z,5.87
2019-06-01T20:07:21.290Z,7.60
2019-06-01T20:12:24.851Z,7.47
2019-06-01T20:17:28.338Z,11.63
2019-06-01T20:22:31.815Z,27.98
2019-06-01T20:27:35.296Z,21.12
2019-06-01T20:32:38.798Z,21.00
2019-06-01T20:37:42.292Z,19.60
2019-06-01T20:42:45.767Z,20.35
2019-06-01T20:47:49.252Z,21.12
2019-06-01T20:52:52.819Z,16.42
2019-06-01T20:57:56.305Z,16.25
2019-06-01T21:02:59.800Z,15.18
2019-06-01T21:08:03.284Z,12.55
2019-06-01T21:13:07.980Z,12.60
2019-06-01T21:18:11.709Z,10.95
2019-06-01T21:23:15.178Z,10.85
2019-06-01T21:28:20.450Z,9.33
2019-06-01T21:33:27.108Z,13.45
2019-06-01T21:38:30.129Z,10.38
2019-06-01T21:43:35.508Z,7.80
2019-06-01T21:48:38.815Z,7.92
2019-06-01T21:53:42.299Z,10.00
2019-06-01T21:58:45.789Z,16.35
2019-06-01T22:03:49.282Z,9.78
2019-06-01T22:08:53.122Z,12.53
2019-06-01T22:13:56.615Z,9.40
2019-06-01T22:19:00.097Z,9.35
2019-06-01T22:24:03.578Z,8.63
2019-06-01T22:29:07.062Z,8.90
2019-06-01T22:34:10.520Z,5.87
2019-06-01T22:39:13.987Z,5.95
2019-06-01T22:44:17.453Z,5.87
2019-06-01T22:49:20.908Z,5.58
2019-06-01T22:54:25.123Z,5.28
2019-06-01T22:59:28.780Z,4.28
2019-06-01T23:04:32.322Z,4.00
2019-06-01T23:09:36.023Z,3.98
2019-06-01T23:14:39.482Z,4.25
2019-06-01T23:19:42.944Z,4.87
2019-06-01T23:24:46.407Z,5.62
2019-06-01T23:29:49.870Z,5.15
2019-06-01T23:34:53.332Z,3.20
2019-06-01T23:39:56.790Z,6.37
2019-06-01T23:45:00.257Z,5.35
2019-06-01T23:50:04.555Z,4.28
2019-06-01T23:55:08.187Z,5.53
